createdAt,value
2018-10-07T00:02:08.570Z,66.15
2018-10-07T00:05:33.045Z,65.78
2018-10-07T00:08:57.496Z,65.81
2018-10-07T00:12:21.906Z,65.64
2018-10-07T00:15:46.318Z,66.42
2018-10-07T00:19:10.741Z,66.55
2018-10-07T00:22:35.262Z,65.59
2018-10-07T00:25:59.739Z,66.13
2018-10-07T00:29:24.147Z,66.45
2018-10-07T00:32:48.569Z,65.95
2018-10-07T00:36:12.987Z,65.82
2018-10-07T00:39:37.443Z,65.28
2018-10-07T00:43:01.888Z,66.20
2018-10-07T00:46:26.320Z,66.73
2018-10-07T00:49:50.745Z,66.49
2018-10-07T00:53:15.177Z,66.16
2018-10-07T00:56:39.564Z,66.39
2018-10-07T01:00:04.076Z,67.16
2018-10-07T01:03:28.477Z,67.20
2018-10-07T01:06:52.938Z,68.01
2018-10-07T01:10:17.376Z,68.20
2018-10-07T01:13:41.832Z,69.46
2018-10-07T01:17:06.616Z,68.27
2018-10-07T01:20:31.005Z,69.29
2018-10-07T01:23:55.479Z,68.99
2018-10-07T01:27:19.921Z,68.67
2018-10-07T01:30:44.470Z,69.44
2018-10-07T01:34:08.884Z,69.00
2018-10-07T01:37:33.365Z,68.82
2018-10-07T01:40:57.801Z,68.72
2018-10-07T01:44:22.225Z,69.05
2018-10-07T01:47:46.651Z,68.27
2018-10-07T01:51:11.072Z,68.36
2018-10-07T01:54:35.699Z,67.35
2018-10-07T01:58:00.332Z,67.71
2018-10-07T02:01:24.775Z,68.12
2018-10-07T02:04:52.266Z,69.28
2018-10-07T02:08:16.779Z,70.44
2018-10-07T02:11:41.342Z,71.80
2018-10-07T02:15:06.152Z,71.06
2018-10-07T02:18:30.688Z,71.64
2018-10-07T02:21:55.158Z,72.71
2018-10-07T02:25:19.597Z,74.18
2018-10-07T02:28:44.111Z,74.34
2018-10-07T02:32:08.545Z,74.09
2018-10-07T02:35:32.972Z,74.74
2018-10-07T02:38:57.402Z,74.21
2018-10-07T02:42:21.830Z,73.10
2018-10-07T02:45:46.282Z,73.38
2018-10-07T02:49:10.649Z,72.77
2018-10-07T02:52:40.209Z,72.71
2018-10-07T02:56:04.655Z,73.37
2018-10-07T02:59:29.072Z,73.97
2018-10-07T03:02:54.034Z,73.59
2018-10-07T03:06:18.497Z,74.69
2018-10-07T03:09:42.944Z,73.81
2018-10-07T03:13:07.374Z,73.42
2018-10-07T03:16:31.858Z,73.71
2018-10-07T03:19:56.468Z,72.80
2018-10-07T03:23:21.021Z,72.36
2018-10-07T03:26:45.508Z,72.84
2018-10-07T03:30:09.958Z,74.03
2018-10-07T03:33:34.375Z,73.69
2018-10-07T03:36:58.969Z,73.08
2018-10-07T03:40:23.413Z,74.26
2018-10-07T03:43:47.863Z,73.66
2018-10-07T03:47:12.407Z,73.07
2018-10-07T03:50:36.835Z,73.48
2018-10-07T03:54:01.248Z,73.82
2018-10-07T03:57:25.633Z,72.75
2018-10-07T04:00:50.151Z,73.64
2018-10-07T04:04:14.622Z,73.57
2018-10-07T04:07:39.088Z,72.48
2018-10-07T04:11:03.475Z,71.50
2018-10-07T04:14:27.997Z,71.82
2018-10-07T04:17:52.428Z,72.15
2018-10-07T04:21:16.839Z,72.97
2018-10-07T04:24:41.377Z,72.84
2018-10-07T04:28:05.783Z,73.67
2018-10-07T04:31:30.196Z,72.97
2018-10-07T04:34:54.603Z,72.47
2018-10-07T04:38:19.060Z,72.14
2018-10-07T04:41:44.314Z,72.69
2018-10-07T04:45:08.769Z,71.70
2018-10-07T04:48:33.261Z,71.98
2018-10-07T04:51:57.700Z,72.39
2018-10-07T04:55:22.093Z,72.33
2018-10-07T04:58:53.214Z,72.47
2018-10-07T05:02:17.674Z,71.86
2018-10-07T05:05:42.086Z,71.17
2018-10-07T05:09:11.133Z,70.64
2018-10-07T05:12:35.722Z,70.44
2018-10-07T05:16:04.090Z,69.65
2018-10-07T05:19:28.514Z,70.10
2018-10-07T05:22:52.909Z,69.66
2018-10-07T05:26:17.361Z,69.54
2018-10-07T05:29:41.800Z,69.61
2018-10-07T05:33:06.285Z,69.06
2018-10-07T05:36:30.735Z,69.02
2018-10-07T05:39:55.183Z,69.11
2018-10-07T05:43:19.769Z,69.61
2018-10-07T05:46:44.189Z,69.70
2018-10-07T05:50:08.665Z,68.74
2018-10-07T05:53:33.061Z,69.08
2018-10-07T05:56:57.458Z,68.95
2018-10-07T06:00:21.920Z,68.90
2018-10-07T06:04:34.296Z,69.18
2018-10-07T06:07:58.849Z,68.07
2018-10-07T06:11:23.253Z,67.46
2018-10-07T06:15:04.718Z,66.61
2018-10-07T06:18:29.173Z,66.94
2018-10-07T06:21:53.595Z,66.77
2018-10-07T06:25:18.039Z,65.22
2018-10-07T06:28:42.438Z,64.45
2018-10-07T06:32:06.925Z,65.19
2018-10-07T06:35:31.411Z,64.48
2018-10-07T06:38:55.937Z,63.87
2018-10-07T06:42:20.369Z,63.77
2018-10-07T06:45:44.829Z,63.68
2018-10-07T06:49:09.292Z,63.41
2018-10-07T06:52:33.911Z,63.80
2018-10-07T06:55:58.382Z,63.91
2018-10-07T06:59:22.785Z,62.74
2018-10-07T07:02:47.225Z,61.31
2018-10-07T07:06:11.650Z,61.09
2018-10-07T07:09:36.051Z,60.95
2018-10-07T07:13:00.553Z,59.17
2018-10-07T07:16:24.963Z,59.78
2018-10-07T07:19:49.613Z,59.75
2018-10-07T07:23:14.028Z,60.18
2018-10-07T07:26:38.437Z,60.14
2018-10-07T07:30:02.837Z,60.51
2018-10-07T07:33:27.288Z,60.44
2018-10-07T07:36:51.742Z,59.84
2018-10-07T07:40:16.161Z,58.88
2018-10-07T07:43:40.669Z,59.14
2018-10-07T07:47:05.135Z,59.43
2018-10-07T07:50:29.726Z,57.90
2018-10-07T07:53:54.164Z,57.92
2018-10-07T07:57:18.771Z,56.96
2018-10-07T08:00:43.164Z,57.15
2018-10-07T08:04:07.607Z,56.99
2018-10-07T08:07:33.036Z,57.27
2018-10-07T08:10:57.450Z,55.15
2018-10-07T08:14:21.857Z,55.15
2018-10-07T08:17:46.257Z,54.22
2018-10-07T08:21:13.493Z,55.64
2018-10-07T08:24:37.950Z,54.63
2018-10-07T08:28:09.374Z,54.24
2018-10-07T08:31:33.794Z,53.65
2018-10-07T08:34:58.292Z,52.95
2018-10-07T08:38:22.768Z,52.47
2018-10-07T08:41:48.186Z,53.04
2018-10-07T08:45:17.859Z,51.32
2018-10-07T08:48:42.340Z,50.71
2018-10-07T08:52:06.764Z,50.52
2018-10-07T08:55:31.161Z,50.97
2018-10-07T08:58:55.610Z,49.67
2018-10-07T09:02:20.123Z,48.00
2018-10-07T09:05:47.104Z,47.97
2018-10-07T09:09:12.411Z,47.77
2018-10-07T09:12:37.004Z,47.28
2018-10-07T09:16:01.525Z,47.58
2018-10-07T09:19:25.956Z,46.32
2018-10-07T09:22:50.705Z,45.80
2018-10-07T09:26:15.136Z,45.12
2018-10-07T09:29:39.669Z,43.66
2018-10-07T09:33:04.144Z,40.58
2018-10-07T09:36:28.747Z,38.21
2018-10-07T09:39:53.323Z,34.31
2018-10-07T09:43:17.695Z,32.58
2018-10-07T09:46:42.189Z,28.55
2018-10-07T09:50:06.718Z,26.84
2018-10-07T09:53:31.144Z,25.45
2018-10-07T09:56:55.539Z,26.50
2018-10-07T10:00:25.143Z,26.60
2018-10-07T10:03:49.617Z,24.00
2018-10-07T10:07:17.383Z,23.76
2018-10-07T10:10:42.826Z,23.95
2018-10-07T10:14:07.389Z,23.16
2018-10-07T10:17:31.924Z,21.25
2018-10-07T10:21:05.156Z,22.68
2018-10-07T10:27:02.445Z,21.88
2018-10-07T10:30:42.407Z,23.12
2018-10-07T10:34:17.712Z,21.61
2018-10-07T10:38:12.803Z,21.59
2018-10-07T10:41:44.921Z,23.46
2018-10-07T10:45:13.816Z,21.16
2018-10-07T10:48:44.377Z,21.67
2018-10-07T10:54:25.588Z,21.50
2018-10-07T10:57:55.290Z,21.37
2018-10-07T11:03:40.927Z,22.03
2018-10-07T11:07:16.030Z,21.00
2018-10-07T11:10:51.776Z,22.12
2018-10-07T11:15:32.317Z,20.13
2018-10-07T11:19:10.904Z,19.67
2018-10-07T11:23:19.155Z,19.14
2018-10-07T11:27:04.375Z,20.15
2018-10-07T11:32:47.036Z,20.55
2018-10-07T11:36:26.291Z,21.83
2018-10-07T11:41:06.701Z,21.56
2018-10-07T11:45:40.137Z,21.41
2018-10-07T11:49:12.534Z,22.16
2018-10-07T11:52:53.457Z,22.85
2018-10-07T11:56:17.798Z,23.51
2018-10-07T11:59:42.196Z,20.99
2018-10-07T12:03:06.665Z,21.16
2018-10-07T12:06:31.083Z,19.19
2018-10-07T12:09:55.495Z,20.12
2018-10-07T12:13:19.943Z,19.30
2018-10-07T12:16:44.444Z,18.21
2018-10-07T12:20:08.944Z,17.10
2018-10-07T12:23:33.379Z,17.02
2018-10-07T12:26:57.809Z,17.39
2018-10-07T12:30:22.266Z,16.45
2018-10-07T12:33:46.664Z,15.25
2018-10-07T12:37:11.096Z,15.58
2018-10-07T12:40:35.556Z,14.86
2018-10-07T12:44:00.111Z,14.39
2018-10-07T12:47:24.536Z,14.17
2018-10-07T12:50:48.942Z,14.42
2018-10-07T12:54:13.512Z,13.35
2018-10-07T12:57:37.940Z,13.83
2018-10-07T13:01:02.402Z,14.67
2018-10-07T13:04:26.828Z,14.67
2018-10-07T13:07:51.387Z,14.45
2018-10-07T13:11:15.837Z,15.89
2018-10-07T13:14:40.263Z,13.87
2018-10-07T13:18:04.664Z,12.48
2018-10-07T13:21:29.146Z,13.92
2018-10-07T13:24:53.574Z,13.88
2018-10-07T13:28:17.988Z,14.10
2018-10-07T13:31:42.473Z,14.91
2018-10-07T13:35:06.942Z,16.15
2018-10-07T13:38:31.378Z,15.10
2018-10-07T13:41:55.799Z,14.63
2018-10-07T13:45:20.235Z,17.22
2018-10-07T13:48:44.655Z,15.77
2018-10-07T13:52:09.097Z,16.84
2018-10-07T13:55:33.476Z,16.97
2018-10-07T13:58:57.974Z,18.32
2018-10-07T14:02:22.432Z,19.80
2018-10-07T14:05:46.845Z,22.93
2018-10-07T14:09:11.311Z,21.02
2018-10-07T14:12:35.735Z,22.87
2018-10-07T14:16:00.168Z,22.97
2018-10-07T14:19:24.595Z,23.68
2018-10-07T14:22:49.008Z,25.37
2018-10-07T14:26:13.441Z,24.07
2018-10-07T14:29:37.920Z,22.14
2018-10-07T14:33:02.327Z,24.03
2018-10-07T14:36:26.775Z,23.68
2018-10-07T14:39:51.216Z,23.84
2018-10-07T14:43:15.671Z,21.86
2018-10-07T14:46:40.158Z,22.64
2018-10-07T14:50:04.703Z,21.02
2018-10-07T14:53:30.383Z,22.55
2018-10-07T14:56:54.760Z,20.52
2018-10-07T15:00:19.220Z,20.66
2018-10-07T15:03:43.630Z,21.26
2018-10-07T15:07:08.081Z,21.11
2018-10-07T15:10:32.463Z,20.17
2018-10-07T15:13:56.948Z,19.59
2018-10-07T15:17:21.377Z,19.63
2018-10-07T15:20:45.785Z,18.53
2018-10-07T15:24:10.251Z,19.77
2018-10-07T15:27:34.693Z,20.64
2018-10-07T15:30:59.198Z,22.20
2018-10-07T15:34:23.655Z,23.81
2018-10-07T15:37:48.081Z,23.50
2018-10-07T15:41:12.497Z,22.01
2018-10-07T15:44:37.035Z,21.75
2018-10-07T15:48:01.477Z,20.10
2018-10-07T15:51:25.967Z,21.80
2018-10-07T15:54:50.555Z,24.01
2018-10-07T15:58:14.995Z,26.48
2018-10-07T16:01:39.466Z,30.06
2018-10-07T16:05:04.065Z,30.36
2018-10-07T16:08:28.498Z,32.63
2018-10-07T16:11:52.934Z,33.63
2018-10-07T16:15:17.414Z,33.86
2018-10-07T16:18:41.931Z,33.96
2018-10-07T16:22:06.462Z,34.34
2018-10-07T16:25:30.944Z,35.58
2018-10-07T16:28:55.350Z,35.94
2018-10-07T16:32:19.814Z,36.94
2018-10-07T16:35:44.294Z,38.05
2018-10-07T16:39:09.033Z,38.66
2018-10-07T16:42:33.408Z,38.53
2018-10-07T16:45:57.840Z,38.55
2018-10-07T16:49:22.362Z,38.49
2018-10-07T16:52:46.838Z,39.37
2018-10-07T16:56:11.409Z,40.62
2018-10-07T16:59:35.816Z,40.02
2018-10-07T17:03:00.319Z,41.67
2018-10-07T17:06:24.737Z,42.27
2018-10-07T17:09:49.149Z,41.12
2018-10-07T17:13:13.763Z,42.26
2018-10-07T17:16:38.064Z,42.41
2018-10-07T17:20:02.511Z,42.32
2018-10-07T17:23:26.946Z,42.81
2018-10-07T17:26:51.429Z,43.01
2018-10-07T17:30:15.856Z,42.83
2018-10-07T17:33:40.284Z,43.76
2018-10-07T17:37:04.713Z,44.00
2018-10-07T17:40:29.127Z,44.24
2018-10-07T17:43:53.708Z,45.10
2018-10-07T17:47:18.330Z,45.50
2018-10-07T17:50:42.837Z,45.06
2018-10-07T17:54:07.452Z,45.30
2018-10-07T17:57:31.900Z,45.92
2018-10-07T18:00:56.355Z,45.55
2018-10-07T18:04:20.800Z,46.93
2018-10-07T18:07:45.205Z,47.68
2018-10-07T18:11:09.697Z,47.86
2018-10-07T18:14:34.129Z,48.12
2018-10-07T18:17:58.536Z,48.36
2018-10-07T18:21:22.964Z,48.10
2018-10-07T18:24:47.452Z,48.92
2018-10-07T18:28:11.955Z,49.11
2018-10-07T18:31:36.395Z,49.53
2018-10-07T18:35:01.265Z,49.69
2018-10-07T18:38:25.694Z,50.54
2018-10-07T18:41:50.094Z,49.75
2018-10-07T18:45:14.522Z,50.98
2018-10-07T18:48:39.006Z,52.32
2018-10-07T18:52:03.528Z,52.38
2018-10-07T18:55:30.804Z,51.68
2018-10-07T18:58:55.342Z,51.61
2018-10-07T19:02:20.273Z,51.85
2018-10-07T19:05:44.703Z,51.75
2018-10-07T19:09:10.942Z,52.85
2018-10-07T19:12:35.422Z,52.21
2018-10-07T19:15:59.833Z,51.78
2018-10-07T19:19:24.239Z,52.72
2018-10-07T19:22:48.603Z,52.53
2018-10-07T19:26:13.007Z,53.22
2018-10-07T19:29:37.470Z,53.45
2018-10-07T19:33:01.867Z,53.83
2018-10-07T19:36:26.294Z,53.39
2018-10-07T19:39:50.688Z,54.67
2018-10-07T19:43:15.111Z,55.20
2018-10-07T19:46:39.540Z,54.75
2018-10-07T19:50:03.957Z,55.31
2018-10-07T19:53:28.445Z,56.16
2018-10-07T19:56:52.922Z,56.28
2018-10-07T20:00:17.395Z,56.59
2018-10-07T20:03:41.950Z,57.58
2018-10-07T20:07:06.563Z,57.09
2018-10-07T20:10:32.400Z,57.88
2018-10-07T20:13:56.804Z,57.76
2018-10-07T20:17:21.186Z,58.00
2018-10-07T20:20:45.634Z,58.56
2018-10-07T20:24:10.087Z,59.11
2018-10-07T20:27:34.536Z,58.69
2018-10-07T20:30:58.973Z,59.28
2018-10-07T20:34:23.421Z,59.36
2018-10-07T20:37:48.564Z,58.93
2018-10-07T20:41:13.034Z,59.75
2018-10-07T20:44:37.457Z,59.56
2018-10-07T20:48:01.934Z,60.46
2018-10-07T20:51:26.429Z,60.84
2018-10-07T20:54:50.894Z,60.00
2018-10-07T20:58:15.430Z,60.41
2018-10-07T21:01:39.874Z,60.41
2018-10-07T21:05:04.351Z,60.08
2018-10-07T21:08:28.766Z,61.29
2018-10-07T21:11:53.278Z,60.83
2018-10-07T21:15:17.671Z,62.27
2018-10-07T21:18:42.106Z,61.52
2018-10-07T21:22:06.531Z,61.17
2018-10-07T21:25:30.941Z,61.83
2018-10-07T21:28:55.390Z,62.38
2018-10-07T21:32:19.841Z,63.05
2018-10-07T21:35:44.324Z,62.77
2018-10-07T21:39:09.996Z,63.21
2018-10-07T21:42:34.465Z,62.66
2018-10-07T21:45:58.924Z,63.38
2018-10-07T21:49:23.420Z,63.16
2018-10-07T21:52:47.931Z,62.93
2018-10-07T21:56:12.439Z,63.75
2018-10-07T21:59:36.970Z,62.54
2018-10-07T22:03:01.451Z,63.56
2018-10-07T22:06:25.863Z,64.66
2018-10-07T22:09:50.290Z,63.47
2018-10-07T22:13:14.778Z,64.80
2018-10-07T22:16:43.155Z,65.03
2018-10-07T22:20:07.735Z,64.54
2018-10-07T22:23:32.164Z,65.32
2018-10-07T22:26:56.644Z,64.64
2018-10-07T22:30:21.086Z,65.77
2018-10-07T22:33:45.572Z,65.48
2018-10-07T22:37:10.102Z,65.82
2018-10-07T22:40:34.852Z,65.69
2018-10-07T22:43:59.402Z,65.79
2018-10-07T22:47:23.873Z,66.31
2018-10-07T22:50:49.145Z,66.51
2018-10-07T22:54:13.709Z,66.08
2018-10-07T22:57:38.447Z,66.24
2018-10-07T23:01:03.013Z,65.15
2018-10-07T23:04:31.030Z,66.25
2018-10-07T23:07:55.458Z,66.82
2018-10-07T23:11:19.858Z,67.90
2018-10-07T23:14:44.250Z,66.83
2018-10-07T23:18:08.670Z,67.19
2018-10-07T23:21:33.048Z,67.14
2018-10-07T23:24:57.465Z,67.27
2018-10-07T23:28:21.954Z,67.37
2018-10-07T23:31:46.356Z,66.94
2018-10-07T23:35:10.797Z,67.75
2018-10-07T23:38:35.183Z,68.19
2018-10-07T23:41:59.638Z,68.33
2018-10-07T23:45:24.028Z,68.96
2018-10-07T23:48:48.457Z,68.29
2018-10-07T23:52:13.121Z,69.44
2018-10-07T23:55:37.443Z,68.95
2018-10-07T23:59:08.613Z,69.04
